createdAt,value
2018-05-14T00:00:05.984Z,57.10
2018-05-14T00:05:08.495Z,57.30
2018-05-14T00:10:10.996Z,57.30
2018-05-14T00:15:13.506Z,57.20
2018-05-14T00:20:16.775Z,57.50
2018-05-14T00:25:19.287Z,57.40
2018-05-14T00:30:21.824Z,57.30
2018-05-14T00:35:24.339Z,57.20
2018-05-14T00:40:27.615Z,57.40
2018-05-14T00:45:30.127Z,57.50
2018-05-14T00:50:32.635Z,57.30
2018-05-14T00:55:35.183Z,57.40
2018-05-14T01:00:38.455Z,57.60
2018-05-14T01:05:40.968Z,57.60
2018-05-14T01:10:43.476Z,57.30
2018-05-14T01:15:46.748Z,57.50
2018-05-14T01:20:49.269Z,57.40
2018-05-14T01:25:51.776Z,57.30
2018-05-14T01:30:55.049Z,57.50
2018-05-14T01:35:57.548Z,57.50
2018-05-14T01:41:00.064Z,57.60
2018-05-14T01:46:03.333Z,57.60
2018-05-14T01:51:05.843Z,57.70
2018-05-14T01:56:08.348Z,57.60
2018-05-14T02:01:10.875Z,57.60
2018-05-14T02:06:13.348Z,57.60
2018-05-14T02:11:16.631Z,57.60
2018-05-14T02:16:19.140Z,57.70
2018-05-14T02:21:21.661Z,57.70
2018-05-14T02:26:24.932Z,57.50
2018-05-14T02:31:27.444Z,57.50
2018-05-14T02:36:29.949Z,57.70
2018-05-14T02:41:33.229Z,57.40
2018-05-14T02:46:35.728Z,57.60
2018-05-14T02:51:38.301Z,57.70
2018-05-14T02:56:40.800Z,57.50
2018-05-14T03:01:43.332Z,57.50
2018-05-14T03:06:46.606Z,57.30
2018-05-14T03:11:49.131Z,57.40
2018-05-14T03:16:52.409Z,57.40
2018-05-14T03:21:54.912Z,57.30
2018-05-14T03:26:57.424Z,57.50
2018-05-14T03:31:59.928Z,57.60
2018-05-14T03:37:03.187Z,57.70
2018-05-14T03:42:05.708Z,57.30
2018-05-14T03:47:08.212Z,57.70
2018-05-14T03:52:10.725Z,57.60
2018-05-14T03:57:14.005Z,57.40
2018-05-14T04:02:28.506Z,57.50
2018-05-14T04:07:31.667Z,57.30
2018-05-14T04:12:34.159Z,57.50
2018-05-14T04:17:37.495Z,57.40
2018-05-14T04:22:40.005Z,57.40
2018-05-14T04:27:42.499Z,57.50
2018-05-14T04:32:45.776Z,58.10
2018-05-14T04:37:48.281Z,57.40
2018-05-14T04:42:50.802Z,57.70
2018-05-14T04:47:53.301Z,57.80
2018-05-14T04:52:56.596Z,57.70
2018-05-14T04:57:59.100Z,57.80
2018-05-14T05:03:02.371Z,57.70
2018-05-14T05:08:04.884Z,57.60
2018-05-14T05:13:07.371Z,57.40
2018-05-14T05:18:09.879Z,57.50
2018-05-14T05:23:13.153Z,58.10
2018-05-14T05:28:15.678Z,57.80
2018-05-14T05:33:18.180Z,57.80
2018-05-14T05:38:21.438Z,58.00
2018-05-14T05:43:23.943Z,58.00
2018-05-14T05:48:26.472Z,58.20
2018-05-14T05:53:28.976Z,58.00
2018-05-14T05:58:32.236Z,58.10
2018-05-14T06:03:34.740Z,57.70
2018-05-14T06:08:37.245Z,58.00
2018-05-14T06:13:39.739Z,58.10
2018-05-14T06:18:42.244Z,58.80
2018-05-14T06:23:44.771Z,59.70
2018-05-14T06:28:47.268Z,59.10
2018-05-14T06:33:49.780Z,60.40
2018-05-14T06:38:52.279Z,59.10
2018-05-14T06:43:54.807Z,58.80
2018-05-14T06:48:57.316Z,58.60
2018-05-14T06:54:00.588Z,58.40
2018-05-14T06:59:03.096Z,58.60
2018-05-14T07:04:05.587Z,58.50
2018-05-14T07:09:08.087Z,58.40
2018-05-14T07:14:10.596Z,58.60
2018-05-14T07:19:13.883Z,58.50
2018-05-14T07:24:16.384Z,58.20
2018-05-14T07:29:18.891Z,58.50
2018-05-14T07:34:22.168Z,58.20
2018-05-14T07:39:24.667Z,58.00
2018-05-14T07:44:27.180Z,58.20
2018-05-14T07:49:29.715Z,58.30
2018-05-14T07:54:32.318Z,59.20
2018-05-14T07:59:34.727Z,58.40
2018-05-14T08:04:37.247Z,58.30
2018-05-14T08:09:39.768Z,58.80
2018-05-14T08:14:43.033Z,58.60
2018-05-14T08:19:45.535Z,58.60
2018-05-14T08:24:48.063Z,59.00
2018-05-14T08:29:51.332Z,59.10
2018-05-14T08:34:53.861Z,59.00
2018-05-14T08:39:57.120Z,59.50
2018-05-14T08:44:59.699Z,59.60
2018-05-14T08:50:02.224Z,59.40
2018-05-14T08:55:04.730Z,60.00
2018-05-14T09:00:07.228Z,59.60
2018-05-14T09:05:09.742Z,59.40
2018-05-14T09:10:13.024Z,59.40
2018-05-14T09:15:15.534Z,59.40
2018-05-14T09:20:18.796Z,59.70
2018-05-14T09:25:21.307Z,59.60
2018-05-14T09:30:23.810Z,59.70
2018-05-14T09:35:26.320Z,59.60
2018-05-14T09:40:28.820Z,59.40
2018-05-14T09:45:32.114Z,59.50
2018-05-14T09:50:34.625Z,59.90
2018-05-14T09:55:37.899Z,59.20
2018-05-14T10:00:41.164Z,59.30
2018-05-14T10:05:43.672Z,60.10
2018-05-14T10:10:46.200Z,59.20
2018-05-14T10:15:48.707Z,59.70
2018-05-14T10:20:51.200Z,60.20
2018-05-14T10:25:53.700Z,59.70
2018-05-14T10:30:56.987Z,59.50
2018-05-14T10:35:59.487Z,59.70
2018-05-14T10:41:02.002Z,59.70
2018-05-14T10:46:04.519Z,59.70
2018-05-14T10:51:07.052Z,59.40
2018-05-14T10:56:09.556Z,59.30
2018-05-14T11:01:12.072Z,59.20
2018-05-14T11:06:15.352Z,59.50
2018-05-14T11:11:17.844Z,59.20
2018-05-14T11:16:20.342Z,59.70
2018-05-14T11:21:22.832Z,59.20
2018-05-14T11:26:25.345Z,58.90
2018-05-14T11:31:27.848Z,59.10
2018-05-14T11:36:30.339Z,57.80
2018-05-14T11:41:33.612Z,55.90
2018-05-14T11:46:36.107Z,55.80
2018-05-14T11:51:38.597Z,55.70
2018-05-14T11:56:41.181Z,55.20
2018-05-14T12:01:43.604Z,54.80
2018-05-14T12:06:46.088Z,56.10
2018-05-14T12:11:48.587Z,56.10
2018-05-14T12:16:51.098Z,55.40
2018-05-14T12:21:53.589Z,56.10
2018-05-14T12:26:56.093Z,55.10
2018-05-14T12:31:59.402Z,54.50
2018-05-14T12:37:01.877Z,54.40
2018-05-14T12:42:04.388Z,53.90
2018-05-14T12:47:07.656Z,54.60
2018-05-14T12:52:10.164Z,54.00
2018-05-14T12:57:12.666Z,54.20
2018-05-14T13:02:15.155Z,52.60
2018-05-14T13:07:18.116Z,53.30
2018-05-14T13:12:20.611Z,53.70
2018-05-14T13:17:23.097Z,53.00
2018-05-14T13:22:25.600Z,53.30
2018-05-14T13:27:28.091Z,52.20
2018-05-14T13:32:30.599Z,51.40
2018-05-14T13:37:33.167Z,51.90
2018-05-14T13:42:35.598Z,52.00
2018-05-14T13:47:38.096Z,52.60
2018-05-14T13:52:40.584Z,51.80
2018-05-14T13:57:43.092Z,52.90
2018-05-14T14:02:45.596Z,51.50
2018-05-14T14:07:48.871Z,51.40
2018-05-14T14:12:51.375Z,51.30
2018-05-14T14:17:53.884Z,51.20
2018-05-14T14:22:56.408Z,50.20
2018-05-14T14:27:59.668Z,49.40
2018-05-14T14:33:02.169Z,49.30
2018-05-14T14:38:04.664Z,49.50
2018-05-14T14:43:07.186Z,48.80
2018-05-14T14:48:10.447Z,49.20
2018-05-14T14:53:12.956Z,49.00
2018-05-14T14:58:15.500Z,49.90
2018-05-14T15:03:17.945Z,48.30
2018-05-14T15:08:20.460Z,48.50
2018-05-14T15:13:23.724Z,47.20
2018-05-14T15:18:26.214Z,47.10
2018-05-14T15:23:28.713Z,48.90
2018-05-14T15:28:31.221Z,47.40
2018-05-14T15:33:33.720Z,47.40
2018-05-14T15:38:36.203Z,48.30
2018-05-14T15:43:38.769Z,47.50
2018-05-14T15:48:41.256Z,48.40
2018-05-14T15:53:43.757Z,48.00
2018-05-14T15:58:46.268Z,47.90
2018-05-14T16:03:48.761Z,47.20
2018-05-14T16:08:51.272Z,47.80
2018-05-14T16:13:53.776Z,48.00
2018-05-14T16:18:56.287Z,48.00
2018-05-14T16:23:59.543Z,48.00
2018-05-14T16:29:02.047Z,48.50
2018-05-14T16:34:04.554Z,47.80
2018-05-14T16:39:07.061Z,48.40
2018-05-14T16:44:09.560Z,46.70
2018-05-14T16:49:12.816Z,47.70
2018-05-14T16:54:15.363Z,47.60
2018-05-14T16:59:17.804Z,46.90
2018-05-14T17:04:20.312Z,46.10
2018-05-14T17:09:22.819Z,46.30
2018-05-14T17:14:25.415Z,46.60
2018-05-14T17:19:27.917Z,46.30
2018-05-14T17:24:30.407Z,46.70
2018-05-14T17:29:32.900Z,47.50
2018-05-14T17:34:35.431Z,47.20
2018-05-14T17:39:37.948Z,47.30
2018-05-14T17:44:40.471Z,47.30
2018-05-14T17:49:42.972Z,47.40
2018-05-14T17:54:45.464Z,47.30
2018-05-14T17:59:47.982Z,47.10
2018-05-14T18:04:51.300Z,47.60
2018-05-14T18:09:54.556Z,47.20
2018-05-14T18:14:57.061Z,47.10
2018-05-14T18:20:05.252Z,47.20
2018-05-14T18:25:13.473Z,47.40
2018-05-14T18:35:49.424Z,46.40
2018-05-14T18:40:54.028Z,47.60
2018-05-14T18:45:56.557Z,47.40
2018-05-14T18:50:59.082Z,46.60
2018-05-14T18:56:05.814Z,47.40
2018-05-14T19:01:08.354Z,47.40
2018-05-14T19:06:11.700Z,48.00
2018-05-14T19:11:19.895Z,47.40
2018-05-14T19:16:32.575Z,48.10
2018-05-14T19:21:35.084Z,48.00
2018-05-14T19:26:37.633Z,48.00
2018-05-14T19:31:40.968Z,48.80
2018-05-14T19:36:43.532Z,48.80
2018-05-14T19:41:52.289Z,49.80
2018-05-14T19:46:56.829Z,49.10
2018-05-14T19:52:01.336Z,49.40
2018-05-14T19:57:04.636Z,49.60
2018-05-14T20:02:07.953Z,50.00
2018-05-14T20:07:10.512Z,49.60
2018-05-14T20:12:13.111Z,49.10
2018-05-14T20:17:15.641Z,49.00
2018-05-14T20:22:18.171Z,49.20
2018-05-14T20:27:20.692Z,49.20
2018-05-14T20:32:23.223Z,49.20
2018-05-14T20:37:25.875Z,49.10
2018-05-14T20:42:28.376Z,49.20
2018-05-14T20:47:30.907Z,49.10
2018-05-14T20:52:33.440Z,49.30
2018-05-14T20:57:35.981Z,49.80
2018-05-14T21:02:38.604Z,49.30
2018-05-14T21:07:41.908Z,49.50
2018-05-14T21:12:45.280Z,49.80
2018-05-14T21:17:47.861Z,50.20
2018-05-14T21:22:50.416Z,49.50
2018-05-14T21:27:53.709Z,49.80
2018-05-14T21:32:57.064Z,49.80
2018-05-14T21:37:59.586Z,49.70
2018-05-14T21:43:02.169Z,49.90
2018-05-14T21:48:04.712Z,49.90
2018-05-14T21:53:08.029Z,50.30
2018-05-14T21:58:11.324Z,49.80
2018-05-14T22:03:13.931Z,50.00
2018-05-14T22:08:16.477Z,50.10
2018-05-14T22:13:19.052Z,50.00
2018-05-14T22:18:21.662Z,50.10
2018-05-14T22:23:24.909Z,50.30
2018-05-14T22:28:31.486Z,50.20
2018-05-14T22:33:33.989Z,50.30
2018-05-14T22:38:36.483Z,50.50
2018-05-14T22:43:38.988Z,50.40
2018-05-14T22:48:41.495Z,50.50
2018-05-14T22:53:44.764Z,51.00
2018-05-14T22:58:47.259Z,50.50
2018-05-14T23:03:49.744Z,50.50
2018-05-14T23:08:52.232Z,50.50
2018-05-14T23:13:54.745Z,50.40
2018-05-14T23:18:57.224Z,50.50
2018-05-14T23:23:59.720Z,50.50
2018-05-14T23:29:02.213Z,50.40
2018-05-14T23:34:04.728Z,50.50
2018-05-14T23:39:07.229Z,50.50
2018-05-14T23:44:09.716Z,50.50
2018-05-14T23:49:12.196Z,50.50
2018-05-14T23:54:14.672Z,50.40
2018-05-14T23:59:17.168Z,50.50
